createdAt,value
2023-04-02T00:00:23.380Z,99168.91
2023-04-02T00:03:03.395Z,99172.38
2023-04-02T00:05:59.678Z,99162.09
2023-04-02T00:08:40.628Z,99183.44
2023-04-02T00:11:11.838Z,99186.88
2023-04-02T00:13:46.283Z,99168.06
2023-04-02T00:16:27.040Z,99192.78
2023-04-02T00:18:59.677Z,99192.78
2023-04-02T00:21:39.555Z,99195.31
2023-04-02T00:24:21.748Z,99197.00
2023-04-02T00:26:52.153Z,99201.25
2023-04-02T00:29:22.614Z,99198.66
2023-04-02T00:31:54.560Z,99199.53
2023-04-02T00:34:33.620Z,99201.22
2023-04-02T00:37:07.898Z,99196.06
2023-04-02T00:39:41.247Z,99203.78
2023-04-02T00:42:14.384Z,99207.25
2023-04-02T00:44:50.932Z,99211.53
2023-04-02T00:47:28.217Z,99204.66
2023-04-02T00:50:01.575Z,99202.13
2023-04-02T00:52:34.015Z,99209.81
2023-04-02T00:55:10.920Z,99204.66
2023-04-02T00:57:44.912Z,99205.50
2023-04-02T01:00:23.468Z,99211.50
2023-04-02T01:03:29.494Z,99215.78
2023-04-02T01:06:10.304Z,99210.63
2023-04-02T01:08:56.484Z,99200.34
2023-04-02T01:11:48.317Z,99204.69
2023-04-02T01:14:39.207Z,99214.06
2023-04-02T01:17:31.175Z,99215.75
2023-04-02T01:20:41.867Z,99208.00
2023-04-02T01:23:16.825Z,99205.44
2023-04-02T01:25:50.568Z,99194.34
2023-04-02T01:28:29.202Z,99204.59
2023-04-02T01:31:04.484Z,99204.66
2023-04-02T01:33:39.286Z,99204.63
2023-04-02T01:36:17.492Z,99174.72
2023-04-02T01:38:56.280Z,99199.44
2023-04-02T01:41:31.995Z,99194.28
2023-04-02T01:44:08.811Z,99174.72
2023-04-02T01:46:44.465Z,99205.44
2023-04-02T01:49:25.433Z,99202.88
2023-04-02T01:52:07.037Z,99202.09
2023-04-02T01:54:43.641Z,99201.16
2023-04-02T01:57:14.317Z,99208.88
2023-04-02T01:59:49.578Z,99202.03
2023-04-02T02:02:23.341Z,99210.66
2023-04-02T02:04:52.764Z,99207.25
2023-04-02T02:07:23.859Z,99206.38
2023-04-02T02:09:56.732Z,99210.59
2023-04-02T02:12:30.929Z,99212.31
2023-04-02T02:15:00.587Z,99202.91
2023-04-02T02:17:34.461Z,99210.59
2023-04-02T02:20:12.246Z,99212.28
2023-04-02T02:22:45.374Z,99207.16
2023-04-02T02:25:18.636Z,99207.16
2023-04-02T02:27:55.967Z,99204.63
2023-04-02T02:30:35.035Z,99187.66
2023-04-02T02:33:13.933Z,99209.88
2023-04-02T02:35:55.668Z,99218.47
2023-04-02T02:38:59.375Z,99213.31
2023-04-02T02:41:46.721Z,99223.59
2023-04-02T02:44:25.785Z,99214.16
2023-04-02T02:47:01.217Z,99219.25
2023-04-02T02:49:35.898Z,99209.03
2023-04-02T02:52:17.198Z,99220.16
2023-04-02T02:55:13.785Z,99233.00
2023-04-02T02:58:06.693Z,99233.84
2023-04-02T03:00:45.820Z,99232.09
2023-04-02T03:03:19.364Z,99242.38
2023-04-02T03:06:05.026Z,99226.94
2023-04-02T03:08:47.117Z,99238.09
2023-04-02T03:11:29.579Z,99231.25
2023-04-02T03:14:06.538Z,99224.38
2023-04-02T03:16:41.737Z,99235.56
2023-04-02T03:19:25.582Z,99232.13
2023-04-02T03:22:05.581Z,99234.66
2023-04-02T03:24:53.003Z,99234.66
2023-04-02T03:27:26.658Z,99232.06
2023-04-02T03:30:07.774Z,99235.44
2023-04-02T03:32:42.168Z,99233.72
2023-04-02T03:35:24.548Z,99239.66
2023-04-02T03:38:00.804Z,99246.53
2023-04-02T03:40:36.996Z,99242.19
2023-04-02T03:43:14.983Z,99239.59
2023-04-02T03:45:47.631Z,99241.28
2023-04-02T03:48:25.270Z,99242.13
2023-04-02T03:51:15.384Z,99245.53
2023-04-02T03:53:53.497Z,99245.50
2023-04-02T03:59:25.248Z,99254.88
2023-04-02T04:02:04.100Z,99253.19
2023-04-02T04:04:34.327Z,99247.28
2023-04-02T04:07:03.952Z,99250.63
2023-04-02T04:09:38.467Z,99243.75
2023-04-02T04:12:25.563Z,99259.94
2023-04-02T04:15:00.268Z,99259.94
2023-04-02T04:17:38.155Z,99253.94
2023-04-02T04:20:21.538Z,99255.66
2023-04-02T04:22:55.345Z,99259.97
2023-04-02T04:25:34.479Z,99258.19
2023-04-02T04:28:21.550Z,99267.59
2023-04-02T04:31:03.817Z,99270.22
2023-04-02T04:33:42.826Z,99271.91
2023-04-02T04:36:28.558Z,99271.03
2023-04-02T04:39:21.171Z,99265.09
2023-04-02T04:41:56.085Z,99273.72
2023-04-02T04:44:27.857Z,99261.84
2023-04-02T04:47:06.083Z,99276.28
2023-04-02T04:49:46.338Z,99284.84
2023-04-02T04:52:22.324Z,99281.47
2023-04-02T04:54:52.590Z,99284.84
2023-04-02T04:57:35.736Z,99280.56
2023-04-02T05:00:18.511Z,99289.03
2023-04-02T05:02:54.078Z,99281.31
2023-04-02T05:05:30.973Z,99287.25
2023-04-02T05:08:17.012Z,99285.53
2023-04-02T05:10:51.524Z,99295.75
2023-04-02T05:13:30.606Z,99266.69
2023-04-02T05:16:15.295Z,99301.72
2023-04-02T05:18:51.219Z,99296.59
2023-04-02T05:21:28.729Z,99283.75
2023-04-02T05:24:08.760Z,99290.56
2023-04-02T05:26:44.109Z,99298.19
2023-04-02T05:29:22.460Z,99297.31
2023-04-02T05:32:03.184Z,99299.94
2023-04-02T05:34:42.135Z,99287.22
2023-04-02T05:37:19.405Z,99299.97
2023-04-02T05:39:54.311Z,99303.44
2023-04-02T05:42:26.951Z,99298.41
2023-04-02T05:45:16.250Z,99310.38
2023-04-02T05:47:47.793Z,99312.03
2023-04-02T05:50:30.097Z,99312.00
2023-04-02T05:53:06.221Z,99314.53
2023-04-02T05:58:37.181Z,99317.03
2023-04-02T06:01:46.836Z,99310.13
2023-04-02T06:04:26.680Z,99315.25
2023-04-02T06:07:07.077Z,99313.56
2023-04-02T06:09:41.379Z,99313.50
2023-04-02T06:12:18.508Z,99316.09
2023-04-02T06:14:48.332Z,99306.44
2023-04-02T06:17:22.076Z,99306.31
2023-04-02T06:19:53.395Z,99314.91
2023-04-02T06:22:36.199Z,99326.78
2023-04-02T06:25:12.517Z,99317.16
2023-04-02T06:27:47.477Z,99317.91
2023-04-02T06:30:26.809Z,99304.31
2023-04-02T06:32:58.228Z,99317.00
2023-04-02T06:35:29.487Z,99316.72
2023-04-02T06:38:07.550Z,99318.13
2023-04-02T06:40:45.961Z,99324.94
2023-04-02T06:43:43.219Z,99318.13
2023-04-02T06:46:37.659Z,99319.78
2023-04-02T06:49:25.094Z,99321.28
2023-04-02T06:52:03.021Z,99319.53
2023-04-02T06:54:35.400Z,99314.31
2023-04-02T06:57:15.530Z,99323.59
2023-04-02T06:59:47.663Z,99312.38
2023-04-02T07:02:31.071Z,99325.16
2023-04-02T07:05:08.767Z,99318.47
2023-04-02T07:07:40.475Z,99331.41
2023-04-02T07:10:19.245Z,99310.13
2023-04-02T07:12:49.917Z,99313.50
2023-04-02T07:15:23.662Z,99316.91
2023-04-02T07:17:56.769Z,99325.63
2023-04-02T07:20:33.310Z,99329.75
2023-04-02T07:23:07.936Z,99316.81
2023-04-02T07:25:37.537Z,99328.94
2023-04-02T07:28:07.227Z,99335.88
2023-04-02T07:30:36.461Z,99334.84
2023-04-02T07:33:05.859Z,99336.31
2023-04-02T07:35:37.480Z,99334.50
2023-04-02T07:38:12.318Z,99338.22
2023-04-02T07:40:42.080Z,99316.97
2023-04-02T07:43:11.760Z,99335.09
2023-04-02T07:45:41.476Z,99331.50
2023-04-02T07:48:12.182Z,99343.38
2023-04-02T07:50:45.596Z,99343.84
2023-04-02T07:58:44.455Z,99353.09
2023-04-02T08:01:26.547Z,99346.19
2023-04-02T08:04:09.515Z,99344.84
2023-04-02T08:06:40.849Z,99350.31
2023-04-02T08:09:10.428Z,99353.06
2023-04-02T08:11:42.597Z,99357.47
2023-04-02T08:14:12.661Z,99360.06
2023-04-02T08:16:49.552Z,99352.25
2023-04-02T08:19:19.555Z,99361.53
2023-04-02T08:21:54.097Z,99361.53
2023-04-02T08:24:23.966Z,99359.75
2023-04-02T08:26:53.331Z,99357.19
2023-04-02T08:29:22.833Z,99352.22
2023-04-02T08:31:52.337Z,99370.22
2023-04-02T08:34:21.658Z,99340.22
2023-04-02T08:36:59.047Z,99369.94
2023-04-02T08:39:32.744Z,99364.59
2023-04-02T08:42:18.480Z,99344.13
2023-04-02T08:44:56.846Z,99350.94
2023-04-02T08:47:30.560Z,99367.59
2023-04-02T08:50:10.077Z,99361.88
2023-04-02T08:52:41.794Z,99364.66
2023-04-02T08:55:27.711Z,99364.41
2023-04-02T08:58:07.322Z,99364.25
2023-04-02T09:00:41.538Z,99358.94
2023-04-02T09:03:17.059Z,99359.75
2023-04-02T09:05:53.920Z,99369.16
2023-04-02T09:08:27.198Z,99338.66
2023-04-02T09:11:04.424Z,99360.94
2023-04-02T09:13:37.270Z,99362.50
2023-04-02T09:16:15.599Z,99364.31
2023-04-02T09:18:46.877Z,99363.44
2023-04-02T09:21:29.257Z,99362.63
2023-04-02T09:24:01.218Z,99369.31
2023-04-02T09:26:41.486Z,99372.59
2023-04-02T09:29:41.140Z,99373.41
2023-04-02T09:32:25.018Z,99365.72
2023-04-02T09:35:24.545Z,99367.50
2023-04-02T09:38:18.168Z,99362.94
2023-04-02T09:40:50.803Z,99366.03
2023-04-02T09:43:24.958Z,99369.56
2023-04-02T09:46:03.927Z,99372.94
2023-04-02T09:48:36.508Z,99373.84
2023-04-02T09:51:14.519Z,99373.94
2023-04-02T09:53:51.046Z,99375.66
2023-04-02T09:56:25.552Z,99373.19
2023-04-02T09:59:05.951Z,99374.25
2023-04-02T10:01:37.488Z,99363.34
2023-04-02T10:04:08.372Z,99381.53
2023-04-02T10:06:53.156Z,99389.16
2023-04-02T10:09:29.996Z,99382.25
2023-04-02T10:12:03.431Z,99373.66
2023-04-02T10:14:37.523Z,99378.69
2023-04-02T10:17:21.345Z,99379.66
2023-04-02T10:19:57.086Z,99375.13
2023-04-02T10:22:26.471Z,99370.66
2023-04-02T10:24:55.696Z,99370.22
2023-04-02T10:27:37.293Z,99371.81
2023-04-02T10:30:21.012Z,99364.91
2023-04-02T10:32:57.263Z,99365.72
2023-04-02T10:35:40.676Z,99354.91
2023-04-02T10:38:21.342Z,99363.81
2023-04-02T10:40:56.971Z,99366.91
2023-04-02T10:44:16.747Z,99360.88
2023-04-02T10:47:01.989Z,99361.19
2023-04-02T10:49:38.254Z,99362.47
2023-04-02T10:52:13.279Z,99340.59
2023-04-02T10:54:53.733Z,99354.91
2023-04-02T10:57:35.742Z,99365.09
2023-04-02T11:00:20.351Z,99364.19
2023-04-02T11:03:05.752Z,99358.28
2023-04-02T11:05:44.105Z,99358.72
2023-04-02T11:08:21.068Z,99349.94
2023-04-02T11:10:55.713Z,99358.47
2023-04-02T11:13:29.666Z,99345.94
2023-04-02T11:15:59.182Z,99344.63
2023-04-02T11:18:35.705Z,99352.97
2023-04-02T11:21:12.883Z,99359.69
2023-04-02T11:23:58.340Z,99344.13
2023-04-02T11:26:54.284Z,99345.78
2023-04-02T11:29:27.649Z,99346.41
2023-04-02T11:32:29.286Z,99349.50
2023-04-02T11:35:38.327Z,99340.16
2023-04-02T11:42:00.909Z,99334.50
2023-04-02T11:44:35.563Z,99342.03
2023-04-02T11:47:19.182Z,99342.41
2023-04-02T11:50:27.402Z,99343.94
2023-04-02T11:53:03.204Z,99347.88
2023-04-02T11:55:34.910Z,99350.44
2023-04-02T11:58:25.038Z,99344.28
2023-04-02T12:01:32.558Z,99344.75
2023-04-02T12:04:24.057Z,99348.53
2023-04-02T12:07:10.464Z,99335.28
2023-04-02T12:09:47.724Z,99340.75
2023-04-02T12:12:29.651Z,99344.81
2023-04-02T12:15:00.297Z,99330.09
2023-04-02T12:17:40.851Z,99333.13
2023-04-02T12:20:22.449Z,99344.81
2023-04-02T12:22:59.511Z,99341.97
2023-04-02T12:25:33.254Z,99341.53
2023-04-02T12:28:07.515Z,99346.75
2023-04-02T12:30:42.468Z,99344.88
2023-04-02T12:33:30.395Z,99342.16
2023-04-02T12:36:01.713Z,99353.41
2023-04-02T12:38:32.789Z,99349.78
2023-04-02T12:41:07.701Z,99341.06
2023-04-02T12:43:42.018Z,99343.44
2023-04-02T12:52:28.504Z,99344.34
2023-04-02T12:55:00.052Z,99344.53
2023-04-02T12:57:41.559Z,99316.16
2023-04-02T13:00:37.846Z,99342.81
2023-04-02T13:03:20.971Z,99340.94
2023-04-02T13:05:55.893Z,99338.88
2023-04-02T13:08:32.903Z,99340.44
2023-04-02T13:11:03.861Z,99339.91
2023-04-02T13:13:36.862Z,99289.25
2023-04-02T13:16:29.772Z,99339.34
2023-04-02T13:19:23.127Z,99340.69
2023-04-02T13:21:52.754Z,99350.56
2023-04-02T13:24:26.020Z,99350.47
2023-04-02T13:26:58.145Z,99330.56
2023-04-02T13:29:31.874Z,99352.38
2023-04-02T13:32:03.289Z,99352.59
2023-04-02T13:34:37.994Z,99349.50
2023-04-02T13:37:07.176Z,99348.91
2023-04-02T13:39:43.406Z,99338.00
2023-04-02T13:42:13.908Z,99347.81
2023-04-02T13:44:46.472Z,99350.00
2023-04-02T13:47:16.771Z,99347.75
2023-04-02T13:49:45.949Z,99351.41
2023-04-02T13:52:17.926Z,99351.41
2023-04-02T13:54:50.985Z,99354.03
2023-04-02T14:00:07.364Z,99350.41
2023-04-02T14:02:41.884Z,99352.88
2023-04-02T14:05:29.295Z,99354.94
2023-04-02T14:08:08.699Z,99362.03
2023-04-02T14:11:01.413Z,99356.00
2023-04-02T14:13:47.683Z,99353.59
2023-04-02T14:16:35.195Z,99349.38
2023-04-02T14:19:20.701Z,99353.00
2023-04-02T14:22:05.696Z,99354.81
2023-04-02T14:24:47.015Z,99361.66
2023-04-02T14:27:33.478Z,99359.00
2023-04-02T14:30:17.366Z,99346.47
2023-04-02T14:33:04.882Z,99362.63
2023-04-02T14:35:37.903Z,99361.88
2023-04-02T14:38:21.623Z,99366.94
2023-04-02T14:41:03.794Z,99361.03
2023-04-02T14:43:43.033Z,99361.03
2023-04-02T14:46:12.708Z,99355.25
2023-04-02T14:48:52.502Z,99361.22
2023-04-02T14:51:27.950Z,99356.31
2023-04-02T14:54:03.331Z,99358.91
2023-04-02T14:56:41.420Z,99353.75
2023-04-02T14:59:31.035Z,99358.22
2023-04-02T15:02:06.049Z,99359.25
2023-04-02T15:04:40.018Z,99362.69
2023-04-02T15:07:21.262Z,99358.44
2023-04-02T15:09:57.184Z,99355.00
2023-04-02T15:12:32.753Z,99366.16
2023-04-02T15:15:10.763Z,99357.59
2023-04-02T15:17:40.111Z,99360.22
2023-04-02T15:20:16.481Z,99363.66
2023-04-02T15:22:57.132Z,99357.69
2023-04-02T15:25:35.624Z,99346.63
2023-04-02T15:28:20.006Z,99367.16
2023-04-02T15:30:58.586Z,99365.47
2023-04-02T15:33:44.440Z,99357.72
2023-04-02T15:36:48.487Z,99362.94
2023-04-02T15:39:40.954Z,99364.75
2023-04-02T15:42:18.365Z,99367.47
2023-04-02T15:45:19.571Z,99369.94
2023-04-02T15:48:18.228Z,99365.88
2023-04-02T15:51:05.183Z,99374.56
2023-04-02T15:53:47.881Z,99374.72
2023-04-02T15:56:42.017Z,99375.50
2023-04-02T15:59:36.765Z,99376.38
2023-04-02T16:02:34.014Z,99370.44
2023-04-02T16:05:12.133Z,99374.78
2023-04-02T16:08:12.277Z,99379.97
2023-04-02T16:10:44.730Z,99387.00
2023-04-02T16:13:22.330Z,99382.75
2023-04-02T16:15:56.078Z,99383.59
2023-04-02T16:18:34.974Z,99388.78
2023-04-02T16:21:06.580Z,99389.69
2023-04-02T16:23:38.368Z,99388.81
2023-04-02T16:26:23.054Z,99373.41
2023-04-02T16:29:18.104Z,99406.88
2023-04-02T16:31:55.647Z,99409.50
2023-04-02T16:34:37.963Z,99412.09
2023-04-02T16:37:17.349Z,99420.78
2023-04-02T16:42:42.948Z,99414.03
2023-04-02T16:45:30.970Z,99428.63
2023-04-02T16:48:16.495Z,99423.47
2023-04-02T16:51:10.729Z,99415.75
2023-04-02T16:54:01.465Z,99422.59
2023-04-02T16:56:46.503Z,99422.63
2023-04-02T16:59:30.230Z,99429.50
2023-04-02T17:02:10.261Z,99427.84
2023-04-02T17:04:58.788Z,99433.00
2023-04-02T17:07:38.232Z,99433.94
2023-04-02T17:10:32.768Z,99430.53
2023-04-02T17:13:17.502Z,99428.09
2023-04-02T17:15:55.828Z,99422.97
2023-04-02T17:18:26.706Z,99410.25
2023-04-02T17:20:56.815Z,99415.47
2023-04-02T17:23:26.829Z,99412.91
2023-04-02T17:26:03.044Z,99433.41
2023-04-02T17:28:47.661Z,99436.03
2023-04-02T17:31:26.000Z,99442.03
2023-04-02T17:33:55.472Z,99442.00
2023-04-02T17:36:42.818Z,99443.69
2023-04-02T17:39:35.478Z,99442.03
2023-04-02T17:42:15.916Z,99436.84
2023-04-02T17:44:56.917Z,99442.94
2023-04-02T17:47:40.448Z,99447.22
2023-04-02T17:50:39.458Z,99417.28
2023-04-02T17:53:21.445Z,99444.59
2023-04-02T17:55:56.440Z,99441.91
2023-04-02T17:58:57.317Z,99448.94
2023-04-02T18:01:33.939Z,99448.97
2023-04-02T18:04:15.256Z,99454.94
2023-04-02T18:06:56.261Z,99455.00
2023-04-02T18:09:41.667Z,99450.00
2023-04-02T18:12:26.787Z,99453.38
2023-04-02T18:15:13.771Z,99456.75
2023-04-02T18:17:50.442Z,99459.41
2023-04-02T18:20:29.073Z,99446.47
2023-04-02T18:23:06.474Z,99465.44
2023-04-02T18:25:56.268Z,99465.44
2023-04-02T18:28:39.871Z,99466.41
2023-04-02T18:31:19.815Z,99463.84
2023-04-02T18:34:32.492Z,99469.81
2023-04-02T18:37:10.378Z,99474.09
2023-04-02T18:39:54.519Z,99466.38
2023-04-02T18:42:35.837Z,99463.84
2023-04-02T18:45:14.063Z,99463.84
2023-04-02T18:47:55.009Z,99468.13
2023-04-02T18:50:31.448Z,99469.88
2023-04-02T18:53:00.983Z,99468.19
2023-04-02T18:55:32.343Z,99465.56
2023-04-02T18:58:07.302Z,99471.59
2023-04-02T19:00:41.002Z,99476.78
2023-04-02T19:03:25.382Z,99476.81
2023-04-02T19:06:00.684Z,99476.88
2023-04-02T19:08:34.632Z,99479.47
2023-04-02T19:11:09.286Z,99478.66
2023-04-02T19:13:38.802Z,99477.81
2023-04-02T19:16:24.375Z,99482.97
2023-04-02T19:19:10.761Z,99441.13
2023-04-02T19:21:57.112Z,99465.88
2023-04-02T19:24:43.719Z,99483.78
2023-04-02T19:27:22.342Z,99485.50
2023-04-02T19:30:12.894Z,99476.03
2023-04-02T19:32:51.946Z,99470.94
2023-04-02T19:35:33.974Z,99469.38
2023-04-02T19:38:16.360Z,99481.34
2023-04-02T19:40:54.853Z,99480.53
2023-04-02T19:43:25.831Z,99448.13
2023-04-02T19:46:03.614Z,99478.91
2023-04-02T19:48:38.973Z,99484.94
2023-04-02T19:51:15.343Z,99483.28
2023-04-02T19:53:44.725Z,99479.88
2023-04-02T19:56:14.053Z,99492.81
2023-04-02T19:58:56.658Z,99491.94
2023-04-02T20:01:26.107Z,99498.78
2023-04-02T20:04:00.757Z,99480.84
2023-04-02T20:06:32.873Z,99498.72
2023-04-02T20:09:03.088Z,99491.03
2023-04-02T20:11:32.637Z,99492.88
2023-04-02T20:14:01.855Z,99496.34
2023-04-02T20:19:07.354Z,99497.22
2023-04-02T20:21:39.833Z,99491.25
2023-04-02T20:24:14.219Z,99498.09
2023-04-02T20:26:43.604Z,99505.84
2023-04-02T20:29:12.938Z,99500.69
2023-04-02T20:31:42.154Z,99494.72
2023-04-02T20:34:12.354Z,99498.25
2023-04-02T20:36:49.202Z,99497.47
2023-04-02T20:39:19.200Z,99506.97
2023-04-02T20:41:48.840Z,99504.41
2023-04-02T20:44:18.277Z,99497.56
2023-04-02T20:46:47.548Z,99504.41
2023-04-02T20:49:16.933Z,99504.38
2023-04-02T20:51:48.644Z,99497.56
2023-04-02T20:54:18.866Z,99498.44
2023-04-02T20:56:48.039Z,99506.16
2023-04-02T20:59:17.532Z,99494.13
2023-04-02T21:01:47.937Z,99485.59
2023-04-02T21:04:17.745Z,99496.69
2023-04-02T21:06:48.931Z,99495.00
2023-04-02T21:09:21.032Z,99495.81
2023-04-02T21:11:50.699Z,99502.72
2023-04-02T21:14:19.940Z,99490.72
2023-04-02T21:16:49.465Z,99494.16
2023-04-02T21:19:18.714Z,99496.78
2023-04-02T21:21:50.138Z,99500.25
2023-04-02T21:24:19.547Z,99496.78
2023-04-02T21:26:49.183Z,99494.19
2023-04-02T21:29:23.680Z,99497.69
2023-04-02T21:31:53.040Z,99498.50
2023-04-02T21:34:22.484Z,99508.00
2023-04-02T21:36:55.238Z,99510.59
2023-04-02T21:39:42.462Z,99518.34
2023-04-02T21:42:13.532Z,99518.38
2023-04-02T21:44:49.010Z,99504.66
2023-04-02T21:47:18.408Z,99509.81
2023-04-02T21:49:47.797Z,99512.41
2023-04-02T21:52:19.326Z,99509.03
2023-04-02T21:54:48.705Z,99513.38
2023-04-02T21:57:19.041Z,99521.03
2023-04-02T21:59:56.585Z,99521.81
2023-04-02T22:02:25.958Z,99520.09
2023-04-02T22:04:55.300Z,99508.91
2023-04-02T22:07:31.712Z,99523.47
2023-04-02T22:10:01.130Z,99511.41
2023-04-02T22:12:30.828Z,99527.69
2023-04-02T22:15:00.213Z,99506.16
2023-04-02T22:17:29.468Z,99485.66
2023-04-02T22:19:58.775Z,99506.22
2023-04-02T22:22:28.519Z,99510.47
2023-04-02T22:25:07.030Z,99520.81
2023-04-02T22:27:36.358Z,99517.41
2023-04-02T22:30:06.454Z,99517.44
2023-04-02T22:32:36.237Z,99528.63
2023-04-02T22:35:06.211Z,99528.66
2023-04-02T22:37:35.880Z,99526.94
2023-04-02T22:40:07.995Z,99511.53
2023-04-02T22:42:38.039Z,99521.81
2023-04-02T22:45:08.129Z,99528.66
2023-04-02T22:47:42.564Z,99523.50
2023-04-02T22:50:12.676Z,99503.75
2023-04-02T22:53:00.164Z,99517.53
2023-04-02T22:55:36.582Z,99518.41
2023-04-02T22:58:05.786Z,99520.09
2023-04-02T23:00:35.229Z,99525.22
2023-04-02T23:03:05.277Z,99526.13
2023-04-02T23:05:34.543Z,99527.00
2023-04-02T23:08:03.773Z,99521.06
2023-04-02T23:10:40.076Z,99527.97
2023-04-02T23:13:09.597Z,99525.44
2023-04-02T23:15:43.914Z,99515.19
2023-04-02T23:18:13.452Z,99517.72
2023-04-02T23:20:43.214Z,99519.44
2023-04-02T23:23:27.806Z,99520.22
2023-04-02T23:26:08.561Z,99522.81
2023-04-02T23:28:39.323Z,99522.00
2023-04-02T23:31:10.869Z,99526.31
2023-04-02T23:33:40.180Z,99527.22
2023-04-02T23:36:20.950Z,99527.16
2023-04-02T23:38:50.441Z,99535.81
2023-04-02T23:41:21.784Z,99528.13
2023-04-02T23:43:54.065Z,99519.56
2023-04-02T23:46:28.987Z,99523.88
2023-04-02T23:48:59.438Z,99514.44
2023-04-02T23:51:29.616Z,99505.06
2023-04-02T23:53:59.002Z,99521.31
2023-04-02T23:56:35.902Z,99517.97
2023-04-02T23:59:05.052Z,99529.03
